Time;durP1;ratioP1;P1;durP2;ratioP2;P2;SDS_P1;SDS_P2;PMS_P1;PMS_P2;Temp;Humidity;BMP_temperature;BMP_pressure;BME280_temperature;BME280_humidity;BME280_pressure;Samples;Min_cycle;Max_cycle;Signal;HPM_P1;HPM_P2
2023/10/03 00:00:51;;;;;;;17.67;8.13;;;;;;;13.74;85.60;96137.53;5007697;28;20972;-72
2023/10/03 00:03:17;;;;;;;16.73;7.70;;;;;;;14.02;83.48;96138.38;5008323;28;20222;-71
2023/10/03 00:05:45;;;;;;;18.87;8.33;;;;;;;14.02;82.85;96141.81;5023902;28;20329;-72
2023/10/03 00:08:10;;;;;;;16.00;7.47;;;;;;;14.18;81.73;96146.00;5025900;28;20401;-71
2023/10/03 00:10:38;;;;;;;16.77;7.40;;;;;;;14.19;81.34;96144.97;5008475;28;20229;-71
2023/10/03 00:13:07;;;;;;;20.10;7.37;;;;;;;13.98;81.73;96145.03;5014828;28;20237;-71
2023/10/03 00:15:32;;;;;;;16.00;7.07;;;;;;;14.01;81.23;96147.28;5001242;28;20736;-71
2023/10/03 00:17:58;;;;;;;16.70;7.53;;;;;;;14.02;81.99;96141.81;5023717;28;20241;-71
2023/10/03 00:20:24;;;;;;;17.40;7.27;;;;;;;14.07;81.35;96143.88;5041414;28;20221;-72
2023/10/03 00:22:50;;;;;;;16.47;7.37;;;;;;;14.16;80.61;96130.38;4999814;28;20680;-71
2023/10/03 00:25:19;;;;;;;19.00;7.20;;;;;;;14.05;80.92;96144.09;5020117;28;20751;-71
2023/10/03 00:27:51;;;;;;;17.03;7.30;;;;;;;13.89;81.63;96143.53;5006776;28;20930;-71
2023/10/03 00:30:19;;;;;;;14.50;7.10;;;;;;;13.74;82.25;96140.97;5007643;28;20277;-70
2023/10/03 00:32:45;;;;;;;14.37;7.03;;;;;;;13.61;82.94;96134.78;5007553;28;20229;-72
2023/10/03 00:35:11;;;;;;;16.10;7.20;;;;;;;13.56;83.47;96135.34;5015489;28;20229;-72
2023/10/03 00:37:40;;;;;;;18.63;7.30;;;;;;;13.50;83.64;96136.91;5000359;28;20230;-71
2023/10/03 00:42:54;;;;;;;16.43;7.40;;;;;;;13.42;83.93;96123.88;5017406;28;20222;-73
2023/10/03 00:45:21;;;;;;;19.23;7.33;;;;;;;13.55;83.84;96131.09;5021424;28;20340;-72
2023/10/03 00:47:50;;;;;;;14.97;7.10;;;;;;;13.42;84.37;96130.97;5013716;28;20319;-72
2023/10/03 00:50:16;;;;;;;15.13;7.43;;;;;;;13.30;84.89;96133.25;4991394;28;20233;-71
2023/10/03 00:52:45;;;;;;;16.07;7.57;;;;;;;13.14;85.52;96143.19;5013027;28;20706;-72
2023/10/03 00:55:11;;;;;;;17.77;7.40;;;;;;;13.38;84.39;96138.41;5016298;28;20229;-71
2023/10/03 00:57:37;;;;;;;16.97;7.60;;;;;;;13.53;83.58;96146.25;5019858;28;20238;-71
2023/10/03 01:00:14;;;;;;;15.43;7.37;;;;;;;13.78;82.78;96141.44;5023458;28;20233;-72
2023/10/03 01:02:47;;;;;;;16.37;7.70;;;;;;;13.71;83.43;96140.56;5024854;28;20597;-70
2023/10/03 01:05:15;;;;;;;17.50;7.47;;;;;;;13.71;83.53;96138.72;5023063;28;20240;-72
2023/10/03 01:07:44;;;;;;;18.33;7.90;;;;;;;13.59;84.22;96136.81;5023803;28;20233;-73
2023/10/03 01:10:12;;;;;;;18.03;8.20;;;;;;;13.34;85.58;96137.16;5016734;28;20237;-72
2023/10/03 01:12:38;;;;;;;16.93;7.83;;;;;;;13.64;84.73;96132.59;5003791;28;20628;-71
2023/10/03 01:15:10;;;;;;;19.03;7.87;;;;;;;13.65;84.65;96134.22;5023945;28;20229;-72
2023/10/03 01:17:37;;;;;;;19.47;8.27;;;;;;;13.62;84.74;96139.84;5002336;28;20387;-72
2023/10/03 01:20:08;;;;;;;14.97;8.17;;;;;;;13.54;85.03;96142.63;5010851;28;20318;-71
2023/10/03 01:22:37;;;;;;;15.03;7.67;;;;;;;13.55;84.95;96148.69;4993996;28;20234;-71
2023/10/03 01:25:06;;;;;;;17.03;7.83;;;;;;;13.54;85.42;96136.53;5002107;28;20400;-71
2023/10/03 01:27:32;;;;;;;17.13;7.73;;;;;;;13.43;85.79;96135.22;5023906;28;20230;-71
2023/10/03 01:29:57;;;;;;;18.50;8.23;;;;;;;13.30;86.32;96130.63;5014013;28;20818;-72
2023/10/03 01:32:23;;;;;;;16.10;7.90;;;;;;;13.54;85.62;96128.66;4997676;28;20624;-72
2023/10/03 01:34:49;;;;;;;15.60;7.20;;;;;;;13.48;85.46;96133.66;4996714;28;20325;-72
2023/10/03 01:37:14;;;;;;;14.13;7.80;;;;;;;13.38;86.24;96135.78;5015036;28;20242;-72
2023/10/03 01:39:40;;;;;;;16.33;7.77;;;;;;;13.31;86.22;96134.06;5000751;28;20229;-72
2023/10/03 01:42:07;;;;;;;18.63;7.53;;;;;;;13.18;87.29;96126.84;5022445;28;20241;-72
2023/10/03 01:44:32;;;;;;;20.57;7.80;;;;;;;13.35;86.37;96125.63;4991309;28;20234;-72
2023/10/03 01:46:58;;;;;;;16.07;7.10;;;;;;;13.41;85.96;96138.03;5011137;28;20365;-71
2023/10/03 01:49:24;;;;;;;21.00;7.77;;;;;;;13.21;87.20;96129.13;5000160;28;20254;-72
2023/10/03 01:51:50;;;;;;;16.00;7.87;;;;;;;13.27;86.66;96130.19;5004259;28;20627;-76
2023/10/03 01:54:15;;;;;;;16.97;7.43;;;;;;;13.37;86.20;96128.09;5014338;28;20250;-76
2023/10/03 01:56:41;;;;;;;14.40;7.37;;;;;;;13.28;86.51;96131.81;5022337;28;20238;-75
2023/10/03 01:59:07;;;;;;;20.83;7.70;;;;;;;13.05;87.71;96125.88;5017244;28;20230;-76
2023/10/03 02:01:37;;;;;;;17.40;8.20;;;;;;;12.92;88.21;96130.97;5016832;28;20237;-76
2023/10/03 02:04:03;;;;;;;14.73;7.70;;;;;;;12.99;88.07;96127.41;4984317;28;20225;-77
2023/10/03 02:06:29;;;;;;;15.10;7.70;;;;;;;12.95;87.95;96115.66;5024325;28;20771;-77
2023/10/03 02:08:56;;;;;;;18.03;7.70;;;;;;;12.87;88.75;96121.03;4997983;28;20268;-75
2023/10/03 02:11:26;;;;;;;18.47;7.30;;;;;;;13.00;87.92;96121.16;5016180;28;20584;-76
2023/10/03 02:13:52;;;;;;;18.73;7.90;;;;;;;13.12;87.00;96116.28;5016866;28;20225;-76
2023/10/03 02:16:20;;;;;;;14.13;7.20;;;;;;;12.98;87.58;96107.41;5023049;28;20670;-76
2023/10/03 02:18:45;;;;;;;16.00;7.60;;;;;;;12.88;87.72;96106.88;5023993;28;20872;-76
2023/10/03 02:21:16;;;;;;;14.80;7.47;;;;;;;12.67;88.58;96105.00;5022664;28;20244;-75
2023/10/03 02:23:42;;;;;;;17.77;7.60;;;;;;;12.70;88.79;96099.41;5018969;28;20239;-75
2023/10/03 02:26:10;;;;;;;16.03;7.00;;;;;;;12.93;87.62;96104.50;5015209;28;20230;-75
2023/10/03 02:28:36;;;;;;;18.17;7.63;;;;;;;12.62;89.03;96096.03;5006671;28;20250;-71
2023/10/03 02:31:07;;;;;;;17.93;7.57;;;;;;;12.69;88.65;96096.94;5018113;28;20245;-71
2023/10/03 02:33:32;;;;;;;15.97;7.63;;;;;;;12.66;89.19;96095.50;5014632;28;20596;-71
2023/10/03 02:35:58;;;;;;;17.03;7.50;;;;;;;12.54;89.93;96096.94;4998237;28;20307;-72
2023/10/03 02:38:30;;;;;;;18.00;7.40;;;;;;;12.72;88.81;96093.94;5039055;28;20734;-71
2023/10/03 02:40:57;;;;;;;17.13;7.70;;;;;;;12.57;89.65;96095.78;4999298;28;20241;-71
2023/10/03 02:43:23;;;;;;;21.30;8.17;;;;;;;12.45;90.16;96098.06;5016524;28;20723;-72
2023/10/03 02:45:49;;;;;;;21.07;8.13;;;;;;;12.43;90.66;96101.84;5004538;28;20222;-71
2023/10/03 02:48:15;;;;;;;20.03;7.87;;;;;;;12.28;91.41;96093.97;5006454;28;20296;-72
2023/10/03 02:50:42;;;;;;;18.10;7.90;;;;;;;12.49;90.54;96091.44;5022589;28;20785;-72
2023/10/03 02:53:14;;;;;;;17.73;7.57;;;;;;;12.65;89.57;96093.06;5022414;28;20237;-72
2023/10/03 02:55:41;;;;;;;18.00;7.80;;;;;;;12.62;89.66;96101.28;5015672;28;20700;-72
2023/10/03 02:58:08;;;;;;;17.37;8.00;;;;;;;12.61;89.54;96094.44;5001716;28;20371;-72
2023/10/03 03:00:33;;;;;;;19.17;7.83;;;;;;;12.49;89.65;96095.88;5022022;28;20280;-71
2023/10/03 03:02:59;;;;;;;19.03;7.87;;;;;;;12.68;88.39;96097.94;5001032;28;20234;-76
2023/10/03 03:05:35;;;;;;;18.67;8.43;;;;;;;12.47;89.05;96108.34;5016116;28;20237;-76
2023/10/03 03:08:04;;;;;;;18.40;8.10;;;;;;;12.53;89.44;96105.03;5015167;28;20261;-76
2023/10/03 03:10:30;;;;;;;18.33;8.20;;;;;;;12.79;86.77;96102.72;5019676;28;20806;-77
2023/10/03 03:12:57;;;;;;;20.73;8.83;;;;;;;12.77;86.18;96107.34;5022055;28;20857;-77
2023/10/03 03:15:23;;;;;;;16.87;8.03;;;;;;;12.72;86.19;96107.09;5019900;28;20727;-75
2023/10/03 03:17:52;;;;;;;19.17;8.33;;;;;;;12.49;87.54;96106.41;5008600;28;20230;-77
2023/10/03 03:20:18;;;;;;;17.40;7.50;;;;;;;12.46;87.06;96109.38;4986257;28;20681;-77
2023/10/03 03:22:47;;;;;;;20.23;7.83;;;;;;;12.58;86.62;96115.81;5002726;28;20772;-77
2023/10/03 03:25:19;;;;;;;18.07;7.20;;;;;;;12.56;86.13;96113.34;5039027;28;20892;-77
2023/10/03 03:27:45;;;;;;;16.27;7.47;;;;;;;12.55;86.08;96111.72;5008071;28;20226;-77
2023/10/03 03:32:53;;;;;;;18.83;7.20;;;;;;;12.56;85.73;96128.31;5019438;28;20637;-76
2023/10/03 03:35:24;;;;;;;14.33;6.87;;;;;;;12.32;86.25;96121.50;5023717;28;20611;-76
2023/10/03 03:37:55;;;;;;;17.27;6.60;;;;;;;12.10;87.60;96122.41;5007345;28;20776;-77
2023/10/03 03:40:31;;;;;;;14.80;6.97;;;;;;;12.08;87.53;96116.50;5024303;28;20624;-77
2023/10/03 03:42:58;;;;;;;16.03;6.73;;;;;;;11.93;88.12;96111.25;5018899;28;20233;-77
2023/10/03 03:45:25;;;;;;;15.77;6.60;;;;;;;12.22;87.43;96117.50;5022788;28;20288;-77
2023/10/03 03:47:51;;;;;;;14.83;6.33;;;;;;;12.25;87.14;96119.78;5022304;28;20241;-75
2023/10/03 03:50:17;;;;;;;14.73;6.50;;;;;;;12.18;86.99;96124.13;5019959;28;20312;-76
2023/10/03 03:52:45;;;;;;;16.17;6.90;;;;;;;12.06;87.27;96126.38;5000999;28;20233;-75
2023/10/03 03:55:11;;;;;;;17.10;6.87;;;;;;;11.96;87.81;96131.06;5024255;28;20260;-76
2023/10/03 03:57:37;;;;;;;15.67;7.23;;;;;;;11.80;88.41;96132.00;5040999;28;20251;-77
2023/10/03 04:00:23;;;;;;;16.73;7.30;;;;;;;11.90;88.32;96137.81;5022898;28;20233;-76
2023/10/03 04:02:49;;;;;;;14.03;7.17;;;;;;;11.86;88.25;96130.50;4990980;28;20241;-75
2023/10/03 04:05:20;;;;;;;18.53;7.27;;;;;;;11.91;88.42;96139.47;4994509;28;20222;-77
2023/10/03 04:07:45;;;;;;;12.47;6.53;;;;;;;11.96;88.19;96138.94;5005105;28;20254;-76
2023/10/03 04:10:13;;;;;;;16.00;6.67;;;;;;;12.01;88.00;96133.97;5006702;28;20662;-76
2023/10/03 04:12:42;;;;;;;16.40;6.77;;;;;;;11.88;88.94;96131.94;5024784;28;20234;-77
2023/10/03 04:15:11;;;;;;;15.20;7.30;;;;;;;11.87;89.20;96137.38;4985808;28;20229;-75
2023/10/03 04:17:43;;;;;;;18.10;7.33;;;;;;;11.77;89.75;96134.19;5000684;28;20242;-76
2023/10/03 04:22:52;;;;;;;15.67;7.17;;;;;;;11.70;90.00;96135.88;5019045;28;20233;-76
2023/10/03 04:25:19;;;;;;;15.50;7.23;;;;;;;11.91;89.14;96134.22;5038452;28;20900;-76
2023/10/03 04:27:48;;;;;;;16.37;7.00;;;;;;;11.81;89.53;96140.69;4988387;28;20230;-75
2023/10/03 04:30:15;;;;;;;18.77;7.53;;;;;;;11.74;89.67;96137.97;5000124;28;20222;-76
2023/10/03 04:32:42;;;;;;;20.30;7.37;;;;;;;11.83;89.79;96130.84;4999980;28;20234;-76
2023/10/03 04:35:11;;;;;;;14.93;6.90;;;;;;;11.77;90.03;96129.75;5023433;28;20276;-76
2023/10/03 04:37:39;;;;;;;17.33;7.20;;;;;;;11.86;89.74;96135.72;5016396;28;20316;-76
2023/10/03 04:40:06;;;;;;;19.53;7.20;;;;;;;11.86;89.82;96133.94;5023847;28;20746;-76
2023/10/03 04:42:35;;;;;;;16.13;7.20;;;;;;;11.88;89.91;96134.56;5017011;28;20299;-76
2023/10/03 04:45:05;;;;;;;20.70;7.23;;;;;;;11.90;89.72;96131.75;5023400;28;20615;-76
2023/10/03 04:47:30;;;;;;;21.37;7.90;;;;;;;11.64;90.63;96132.13;5024522;28;20719;-76
2023/10/03 04:49:59;;;;;;;18.57;7.23;;;;;;;11.60;91.16;96130.84;5023039;28;20233;-76
2023/10/03 04:52:25;;;;;;;22.93;7.80;;;;;;;11.67;90.90;96136.19;5040493;28;20230;-76
2023/10/03 04:54:50;;;;;;;20.13;7.20;;;;;;;11.88;90.21;96134.56;5023511;28;20253;-76
2023/10/03 04:57:16;;;;;;;20.00;7.40;;;;;;;11.99;89.62;96134.13;4991698;28;20245;-76
2023/10/03 04:59:42;;;;;;;19.60;8.17;;;;;;;12.18;88.78;96135.41;5012405;28;20226;-76
2023/10/03 05:02:10;;;;;;;18.80;8.23;;;;;;;12.29;88.51;96131.53;5041039;28;20237;-77
2023/10/03 05:04:35;;;;;;;19.30;7.90;;;;;;;12.51;87.56;96136.72;4992371;28;20315;-76
2023/10/03 05:07:01;;;;;;;23.90;7.87;;;;;;;12.32;88.41;96137.28;5019273;28;20957;-77
2023/10/03 05:09:32;;;;;;;19.40;7.97;;;;;;;12.24;88.72;96139.16;5016922;28;21052;-76
2023/10/03 05:11:57;;;;;;;20.70;8.37;;;;;;;12.27;88.89;96144.03;5023354;28;20425;-76
2023/10/03 05:14:23;;;;;;;20.77;8.10;;;;;;;12.33;89.06;96144.13;5025644;28;20221;-76
2023/10/03 05:16:52;;;;;;;25.67;8.40;;;;;;;12.50;88.23;96150.03;4989738;28;20230;-76
2023/10/03 05:19:18;;;;;;;22.53;8.23;;;;;;;12.61;87.98;96152.22;5023820;28;20238;-76
2023/10/03 05:21:45;;;;;;;21.10;8.40;;;;;;;12.61;87.11;96150.38;4996747;28;20233;-76
2023/10/03 05:24:11;;;;;;;18.47;7.87;;;;;;;12.56;86.96;96149.31;5007567;28;20229;-76
2023/10/03 05:26:40;;;;;;;20.57;7.73;;;;;;;12.58;87.03;96149.94;5006192;28;20230;-77
2023/10/03 05:29:07;;;;;;;21.27;8.13;;;;;;;12.48;87.48;96150.22;5022381;28;20250;-76
2023/10/03 05:31:34;;;;;;;18.27;7.80;;;;;;;12.54;87.04;96153.91;4997728;28;20321;-75
2023/10/03 05:34:00;;;;;;;19.30;7.83;;;;;;;12.55;86.87;96153.75;5039660;28;21052;-77
2023/10/03 05:36:25;;;;;;;25.53;8.53;;;;;;;12.63;86.95;96160.72;5002026;28;20237;-77
2023/10/03 05:38:51;;;;;;;23.90;8.43;;;;;;;12.80;86.28;96157.72;5039893;28;20245;-76
2023/10/03 05:41:23;;;;;;;21.33;8.00;;;;;;;12.89;85.95;96160.25;4999457;28;20284;-76
2023/10/03 05:43:49;;;;;;;23.73;8.03;;;;;;;12.96;84.83;96156.72;5017998;28;20234;-70
2023/10/03 05:46:15;;;;;;;19.73;8.60;;;;;;;12.96;84.89;96156.72;5022757;28;20241;-71
2023/10/03 05:48:40;;;;;;;25.83;8.73;;;;;;;12.92;84.86;96155.41;5017173;28;20226;-70
2023/10/03 05:51:06;;;;;;;24.07;8.23;;;;;;;12.96;84.53;96151.44;5016139;28;20649;-70
2023/10/03 05:53:34;;;;;;;22.43;8.17;;;;;;;13.01;84.27;96159.59;5006598;28;20261;-71
2023/10/03 05:56:04;;;;;;;18.97;8.20;;;;;;;13.00;84.49;96163.22;5035886;28;20230;-71
2023/10/03 05:58:30;;;;;;;20.17;8.00;;;;;;;12.96;84.51;96155.88;5039239;28;20237;-69
2023/10/03 06:00:56;;;;;;;21.37;9.20;;;;;;;13.12;83.75;96156.53;5012464;28;20261;-70
2023/10/03 06:03:21;;;;;;;23.23;9.03;;;;;;;13.08;83.92;96160.53;5013933;28;20225;-71
2023/10/03 06:05:47;;;;;;;22.63;8.60;;;;;;;13.03;85.12;96164.66;5021801;28;20323;-70
2023/10/03 06:08:12;;;;;;;21.60;9.13;;;;;;;13.05;85.52;96170.56;5015604;28;20226;-70
2023/10/03 06:10:41;;;;;;;24.27;9.30;;;;;;;13.23;84.15;96166.53;4990456;28;20230;-71
2023/10/03 06:13:10;;;;;;;19.73;9.43;;;;;;;13.36;83.47;96163.25;5022481;28;20772;-70
2023/10/03 06:15:37;;;;;;;22.23;9.40;;;;;;;13.41;82.90;96161.72;5022140;28;20230;-71
2023/10/03 06:18:04;;;;;;;23.03;9.30;;;;;;;13.50;83.05;96173.75;5021110;28;20226;-70
2023/10/03 06:20:30;;;;;;;23.43;9.83;;;;;;;13.43;82.85;96172.03;5022669;28;20306;-69
2023/10/03 06:22:56;;;;;;;23.00;9.53;;;;;;;13.57;83.15;96165.91;4990001;28;20233;-70
2023/10/03 06:25:23;;;;;;;26.83;10.43;;;;;;;13.47;83.13;96171.47;5013599;28;21303;-70
2023/10/03 06:27:48;;;;;;;27.97;10.93;;;;;;;13.61;83.10;96171.63;5015062;28;20249;-71
2023/10/03 06:30:14;;;;;;;24.43;10.53;;;;;;;13.84;82.65;96170.44;5022889;28;20229;-71
2023/10/03 06:32:39;;;;;;;31.87;11.03;;;;;;;13.87;82.53;96167.44;5023843;28;20219;-70
2023/10/03 06:35:06;;;;;;;23.80;10.70;;;;;;;13.95;82.61;96174.34;5012085;28;20233;-70
2023/10/03 06:37:35;;;;;;;26.73;11.27;;;;;;;13.94;81.78;96168.31;5010310;28;20249;-70
2023/10/03 06:40:06;;;;;;;27.83;10.87;;;;;;;13.96;81.65;96176.00;5005862;28;20222;-70
2023/10/03 06:42:32;;;;;;;23.83;11.23;;;;;;;14.08;81.42;96185.00;5003656;28;20303;-71
2023/10/03 06:45:00;;;;;;;23.37;11.00;;;;;;;14.13;81.35;96183.44;5013515;28;20234;-71
2023/10/03 06:47:25;;;;;;;27.57;11.20;;;;;;;14.22;81.36;96194.66;5018367;28;20237;-71
2023/10/03 06:49:51;;;;;;;27.07;11.23;;;;;;;14.10;81.69;96183.00;5004221;28;20238;-71
2023/10/03 06:52:16;;;;;;;24.30;11.20;;;;;;;14.26;82.03;96184.56;5002182;28;20235;-71
2023/10/03 06:54:42;;;;;;;25.03;11.10;;;;;;;14.37;80.79;96189.31;5023491;28;20230;-72
2023/10/03 06:57:08;;;;;;;29.47;10.83;;;;;;;14.39;80.07;96187.31;5016933;28;20621;-70
2023/10/03 06:59:33;;;;;;;29.20;11.13;;;;;;;14.26;80.73;96189.81;5021647;28;20258;-76
2023/10/03 07:01:59;;;;;;;28.27;10.63;;;;;;;14.29;79.81;96190.25;4998733;28;20600;-76
2023/10/03 07:04:25;;;;;;;26.43;10.93;;;;;;;14.40;79.20;96196.84;5022384;28;20229;-76
2023/10/03 07:06:50;;;;;;;27.50;10.67;;;;;;;14.42;79.17;96190.38;4999934;28;20831;-76
2023/10/03 07:09:17;;;;;;;28.07;10.83;;;;;;;14.45;79.24;96202.38;5005385;28;20225;-76
2023/10/03 07:11:43;;;;;;;32.37;11.43;;;;;;;14.55;78.53;96200.19;5009673;28;20646;-76
2023/10/03 07:14:12;;;;;;;29.90;10.80;;;;;;;14.54;78.42;96202.03;5014264;28;20229;-75
2023/10/03 07:16:38;;;;;;;30.97;10.67;;;;;;;14.64;78.01;96199.06;5016114;28;20254;-78
2023/10/03 07:19:04;;;;;;;28.97;11.03;;;;;;;14.71;77.79;96197.28;5000390;28;20255;-76
2023/10/03 07:21:30;;;;;;;27.97;10.63;;;;;;;14.76;77.86;96203.56;5005854;28;20252;-75
2023/10/03 07:23:56;;;;;;;29.03;10.80;;;;;;;14.82;76.72;96202.00;5005476;28;20237;-75
2023/10/03 07:26:22;;;;;;;26.73;11.37;;;;;;;14.81;77.19;96209.06;5012080;28;20226;-75
2023/10/03 07:28:47;;;;;;;25.43;10.53;;;;;;;14.89;76.72;96209.94;5021918;28;20241;-75
2023/10/03 07:31:13;;;;;;;26.40;10.10;;;;;;;14.88;77.12;96210.94;5022757;28;20246;-76
2023/10/03 07:33:45;;;;;;;26.57;10.20;;;;;;;14.76;77.46;96213.28;5039782;28;20237;-75
2023/10/03 07:36:10;;;;;;;23.67;9.93;;;;;;;14.90;77.01;96215.03;5024205;28;20234;-75
2023/10/03 07:38:36;;;;;;;26.27;10.40;;;;;;;14.90;76.80;96211.56;5017022;28;20355;-76
2023/10/03 07:41:13;;;;;;;26.50;10.10;;;;;;;15.06;76.08;96212.06;5021724;28;20264;-77
2023/10/03 07:43:39;;;;;;;25.63;10.47;;;;;;;15.09;76.01;96210.88;4990045;28;20638;-76
2023/10/03 07:46:05;;;;;;;22.80;9.97;;;;;;;15.26;75.86;96206.88;4998136;28;20230;-76
2023/10/03 07:48:30;;;;;;;30.47;10.37;;;;;;;15.30;76.28;96205.47;5022871;28;20254;-75
2023/10/03 07:50:56;;;;;;;22.87;9.90;;;;;;;15.33;75.61;96211.16;4999118;28;21003;-75
2023/10/03 07:53:21;;;;;;;21.80;9.83;;;;;;;15.33;74.96;96205.88;4996847;28;20231;-76
2023/10/03 07:55:47;;;;;;;29.70;10.30;;;;;;;15.49;74.76;96202.94;4996057;28;20226;-76
2023/10/03 07:58:15;;;;;;;26.43;9.80;;;;;;;15.50;74.98;96203.72;5019024;28;20280;-77
2023/10/03 08:00:45;;;;;;;25.40;10.40;;;;;;;15.54;73.81;96202.34;5025829;28;20355;-75
2023/10/03 08:03:11;;;;;;;28.47;10.00;;;;;;;15.64;73.87;96197.50;5025478;28;20226;-75
2023/10/03 08:05:38;;;;;;;24.93;9.43;;;;;;;15.69;73.31;96196.91;5020758;28;20226;-76
2023/10/03 08:08:04;;;;;;;36.53;16.17;;;;;;;15.66;73.89;96192.03;5041301;28;20287;-75
2023/10/03 08:10:30;;;;;;;28.20;10.10;;;;;;;15.72;73.47;96186.75;5007063;28;20351;-75
2023/10/03 08:12:57;;;;;;;20.40;9.20;;;;;;;15.80;73.22;96198.94;5024912;28;20236;-76
2023/10/03 08:15:31;;;;;;;21.03;9.77;;;;;;;15.83;72.86;96195.91;5004008;28;20321;-76
2023/10/03 08:17:57;;;;;;;28.97;9.73;;;;;;;15.87;72.35;96191.84;5019983;28;21047;-75
2023/10/03 08:20:36;;;;;;;22.17;8.67;;;;;;;15.92;72.28;96190.25;5018663;28;20237;-70
2023/10/03 08:23:03;;;;;;;21.77;9.60;;;;;;;16.03;71.75;96192.28;5024684;28;20321;-70
2023/10/03 08:25:29;;;;;;;23.13;8.73;;;;;;;16.10;71.80;96187.81;5020190;28;20337;-70
2023/10/03 08:27:55;;;;;;;18.13;8.30;;;;;;;16.30;71.06;96192.28;5007704;28;20287;-69
2023/10/03 08:30:30;;;;;;;20.70;8.60;;;;;;;16.45;70.88;96182.34;5020052;28;20226;-70
2023/10/03 08:32:57;;;;;;;25.03;9.53;;;;;;;16.63;69.31;96180.72;5008832;28;20229;-74
2023/10/03 08:35:41;;;;;;;17.70;8.40;;;;;;;16.59;69.20;96176.88;5020336;28;20240;-76
2023/10/03 08:38:08;;;;;;;18.23;8.73;;;;;;;16.50;69.35;96178.03;5021886;28;20383;-76
2023/10/03 08:40:42;;;;;;;21.67;9.27;;;;;;;16.63;69.71;96185.19;5023391;28;20222;-75
2023/10/03 08:43:09;;;;;;;26.60;9.97;;;;;;;16.74;69.60;96174.00;5025081;28;20743;-74
2023/10/03 08:45:52;;;;;;;22.73;9.30;;;;;;;16.83;69.20;96170.09;5007549;28;21098;-74
2023/10/03 08:48:20;;;;;;;23.87;10.13;;;;;;;16.91;68.29;96167.22;5023103;28;20234;-76
2023/10/03 08:50:52;;;;;;;26.87;9.90;;;;;;;16.83;67.83;96170.09;5007569;28;20229;-75
2023/10/03 08:53:27;;;;;;;21.30;8.90;;;;;;;16.79;68.58;96163.56;5019744;28;20230;-74
2023/10/03 08:55:59;;;;;;;19.57;7.97;;;;;;;17.05;67.81;96163.50;5023902;28;20225;-75
2023/10/03 08:58:25;;;;;;;20.17;8.33;;;;;;;17.30;67.09;96163.63;4999149;28;20222;-71
2023/10/03 09:00:58;;;;;;;17.27;8.33;;;;;;;17.47;66.42;96159.47;5019953;28;20226;-70
2023/10/03 09:03:29;;;;;;;19.50;8.37;;;;;;;17.52;65.30;96159.69;5023954;28;20264;-68
2023/10/03 09:05:58;;;;;;;24.50;8.17;;;;;;;17.47;65.55;96151.53;5022377;28;20284;-69
2023/10/03 09:08:25;;;;;;;20.67;8.57;;;;;;;17.49;65.60;96152.13;5002658;28;20715;-71
2023/10/03 09:10:55;;;;;;;22.13;8.63;;;;;;;17.59;65.39;96149.88;4999485;28;20714;-69
2023/10/03 09:13:25;;;;;;;18.97;8.00;;;;;;;17.77;65.28;96143.84;5023914;28;20621;-70
2023/10/03 09:16:02;;;;;;;19.83;8.03;;;;;;;17.83;63.60;96148.28;4988749;28;20329;-70
2023/10/03 09:18:39;;;;;;;21.63;7.40;;;;;;;17.89;63.96;96145.59;4999747;28;20248;-70
2023/10/03 09:21:04;;;;;;;17.77;7.90;;;;;;;17.91;63.83;96142.75;4998583;28;20296;-70
2023/10/03 09:23:38;;;;;;;25.93;8.43;;;;;;;18.06;64.72;96143.22;5023527;28;20218;-71
2023/10/03 09:26:06;;;;;;;22.80;8.73;;;;;;;18.19;63.81;96145.78;4999969;28;20237;-69
2023/10/03 09:28:35;;;;;;;19.70;8.03;;;;;;;18.21;62.96;96142.91;5023901;28;20226;-71
2023/10/03 09:31:08;;;;;;;20.00;8.03;;;;;;;18.35;63.13;96137.28;5007370;28;21740;-70
2023/10/03 09:33:38;;;;;;;21.03;8.67;;;;;;;18.53;63.15;96134.66;4992165;28;20718;-70
2023/10/03 09:36:04;;;;;;;23.77;9.43;;;;;;;18.58;62.07;96131.38;5016361;28;20636;-71
2023/10/03 09:38:42;;;;;;;23.13;8.73;;;;;;;18.70;62.33;96135.72;5007540;28;20226;-71
2023/10/03 09:41:08;;;;;;;20.40;8.40;;;;;;;18.77;61.44;96136.47;5022916;28;20226;-70
2023/10/03 09:43:33;;;;;;;18.37;8.03;;;;;;;18.78;61.38;96127.50;5002823;28;20781;-70
2023/10/03 09:46:00;;;;;;;24.27;8.43;;;;;;;18.83;60.74;96134.78;5015111;28;20245;-70
2023/10/03 09:48:25;;;;;;;21.47;7.80;;;;;;;18.91;60.70;96125.72;5013862;28;20226;-71
2023/10/03 09:50:55;;;;;;;22.03;8.20;;;;;;;18.99;59.95;96125.41;5024188;28;20624;-70
2023/10/03 09:53:27;;;;;;;16.40;7.57;;;;;;;18.88;59.30;96128.81;5040482;28;20302;-70
2023/10/03 09:55:54;;;;;;;20.60;7.93;;;;;;;18.97;59.75;96124.81;5006284;28;20239;-70
2023/10/03 09:58:24;;;;;;;16.87;8.03;;;;;;;19.01;58.23;96124.16;5007541;28;20229;-75
2023/10/03 10:00:53;;;;;;;24.00;8.60;;;;;;;19.05;58.46;96116.56;5002014;28;20237;-74
2023/10/03 10:03:26;;;;;;;19.47;7.93;;;;;;;19.03;59.32;96118.66;5016056;28;20226;-75
2023/10/03 10:06:12;;;;;;;16.57;7.43;;;;;;;19.12;60.12;96119.97;5002677;28;20280;-76
2023/10/03 10:09:14;;;;;;;19.10;7.40;;;;;;;19.17;58.68;96112.13;5026934;28;20797;-76
2023/10/03 10:12:19;;;;;;;17.63;7.13;;;;;;;19.19;58.78;96102.91;5002306;28;20328;-77
2023/10/03 10:17:51;;;;;;;16.10;7.80;;;;;;;19.39;58.96;96100.03;5023824;28;20288;-74
2023/10/03 10:20:18;;;;;;;18.70;7.53;;;;;;;19.52;56.21;96099.03;5038111;28;20244;-75
2023/10/03 10:23:06;;;;;;;17.60;7.70;;;;;;;19.55;56.48;96088.78;5016064;28;20238;-74
2023/10/03 10:25:41;;;;;;;23.57;7.90;;;;;;;19.66;56.28;96085.31;5006446;28;20661;-70
2023/10/03 10:28:31;;;;;;;16.20;7.43;;;;;;;19.65;55.67;96078.41;4994900;28;20766;-70
2023/10/03 10:31:16;;;;;;;18.33;7.63;;;;;;;19.80;54.29;96075.34;5023258;28;20233;-70
2023/10/03 10:33:42;;;;;;;20.43;7.47;;;;;;;19.90;53.36;96079.03;5022410;28;20253;-72
2023/10/03 10:36:10;;;;;;;16.83;7.27;;;;;;;19.85;53.76;96073.59;5016772;28;20238;-70
2023/10/03 10:38:35;;;;;;;18.27;7.47;;;;;;;19.93;54.82;96075.09;5006729;28;20240;-69
2023/10/03 10:41:36;;;;;;;17.83;7.60;;;;;;;19.92;53.39;96065.50;5021854;28;20241;-71
2023/10/03 10:44:13;;;;;;;16.40;7.20;;;;;;;19.97;53.68;96069.09;5023204;28;20221;-70
2023/10/03 10:46:52;;;;;;;14.67;7.13;;;;;;;20.08;52.97;96059.53;5005450;28;20248;-70
2023/10/03 10:49:36;;;;;;;19.00;7.60;;;;;;;20.27;52.29;96057.59;5006874;28;20310;-70
2023/10/03 10:52:06;;;;;;;15.43;7.33;;;;;;;20.33;53.28;96056.66;5019665;28;20736;-74
2023/10/03 10:54:36;;;;;;;17.77;7.33;;;;;;;20.47;53.26;96053.53;5022203;28;20879;-75
2023/10/03 10:57:03;;;;;;;19.77;7.43;;;;;;;20.64;52.90;96048.28;5005776;28;20234;-75
2023/10/03 10:59:35;;;;;;;19.73;8.60;;;;;;;20.76;52.20;96049.06;5017259;28;20704;-75
2023/10/03 11:02:01;;;;;;;20.00;7.40;;;;;;;20.80;51.09;96050.25;5007136;28;20226;-75
2023/10/03 11:04:27;;;;;;;19.27;8.13;;;;;;;20.81;50.55;96044.69;5014514;28;20263;-76
2023/10/03 11:06:53;;;;;;;15.83;7.20;;;;;;;20.67;51.33;96034.53;5005101;28;20764;-76
2023/10/03 11:09:23;;;;;;;18.53;7.13;;;;;;;20.80;51.69;96031.63;5024683;28;20313;-75
2023/10/03 11:11:51;;;;;;;18.33;7.40;;;;;;;20.92;52.25;96020.94;5008920;28;20233;-76
2023/10/03 11:14:28;;;;;;;17.03;7.10;;;;;;;21.09;52.10;96029.81;5006580;28;20303;-75
2023/10/03 11:16:55;;;;;;;19.20;7.50;;;;;;;21.21;51.10;96028.69;5005407;28;20309;-76
2023/10/03 11:19:21;;;;;;;17.07;7.53;;;;;;;21.19;50.01;96028.13;4989881;28;20230;-75
2023/10/03 11:21:46;;;;;;;19.03;7.77;;;;;;;21.19;49.88;96027.31;5038516;28;20253;-76
2023/10/03 11:24:16;;;;;;;18.93;7.70;;;;;;;21.22;49.21;96019.69;5015112;28;20229;-75
2023/10/03 11:26:51;;;;;;;17.80;7.60;;;;;;;21.09;50.22;96017.28;5014781;28;20288;-74
2023/10/03 11:29:37;;;;;;;20.47;7.57;;;;;;;21.21;50.12;96010.06;5017290;28;20235;-76
2023/10/03 11:32:03;;;;;;;15.37;7.60;;;;;;;21.35;50.69;96011.38;5018370;28;20234;-76
2023/10/03 11:34:35;;;;;;;17.27;7.73;;;;;;;21.48;49.49;96011.09;5026682;28;20819;-74
2023/10/03 11:37:03;;;;;;;16.50;7.53;;;;;;;21.49;49.92;96001.25;5008936;28;20307;-75
2023/10/03 11:39:32;;;;;;;16.47;7.27;;;;;;;21.52;50.74;95999.94;5006331;28;20715;-75
2023/10/03 11:42:00;;;;;;;19.13;7.70;;;;;;;21.56;49.69;96001.06;4992768;28;20310;-75